Tucson, AZ

11:39 PM MST on September 25, 2016 (GMT -0700)
UA WRRC WEATHER | | Change Station
Active Advisory: Wind Advisory

Elev 2431 ft 32.23 °N, 110.94 °W | Updated 10 minutes ago

Clear
Clear
71.4 °F
Feels Like 77 °F
N
0.0
Wind Variable Wind from WNW
Gusts 2.0 mph

Today
High -- | Low -- °F
--% Chance of Precip.
Yesterday
High -- | Low -- °F
Precip. -- in
Pressure 29.96 in
Visibility 10.0 miles
Clouds Clear
Heat Index 77 °F
Dew Point 44 °F
Humidity 38%
Rainfall in
Snow Depth Not available.
6:14 AM 6:15 PM
Waning Crescent, 21% visible
METAR KDMA 260558Z AUTO 14005KT 10SM CLR 22/06 A3007 RMK AO2 SLP145 T02150058 10308 20206 52015 CHINO RWY30 $
Pressure 29.96 in
Visibility 10.0 miles
Clouds Clear
Heat Index 77 °F
Dew Point 44 °F
Humidity 38%
Rainfall in
Snow Depth Not available.
6:14 AM 6:15 PM
Waning Crescent, 21% visible
METAR KDMA 260558Z AUTO 14005KT 10SM CLR 22/06 A3007 RMK AO2 SLP145 T02150058 10308 20206 52015 CHINO RWY30 $

10-Day Weather Forecast

Almanac

Astronomy

Sep. 25, 2016 Rise Set
Actual Time
Civil Twilight
Nautical Twilight
Astronomical Twilight
Moon
Length of Visible Light
Length of Day
Tomorrow will be .
, % of the Moon is Illuminated

Today's Extremes

State Highs State Lows

Community

WunderPhotos

Upload Photos

1,941,853 photos uploaded!

WunderBlog® & News

Nearby

Air Quality

  Air Quality AQ Index Pollutant
Not available.

Snow Depth

Station Depth Elevation

Earthquake Activity

City Distance Mag. Time & Date
Minimum magnitude displayed is 2.5.

Coastal Water Temperatures

Place Temperature

Stations

Nearby Weather Stations

Station Location Temp. Windchill Dew Point Humidity Wind Precip. Elev Updated Type
                   

Watches & Warnings

Wind Advisory
Issued: 9:28 PM MDT Sep. 25, 2016 – National Weather Service

... Wind Advisory remains in effect from 5 am to 4 PM MST Monday...

* impacts... high profile vehicles will be affected by strong
winds. Loose objects will also be blown around.

* Timing... from 5 am to 4 PM MST Monday.

* Winds... east 25 to 35 mph with gusts to near 50 mph for the
valleys or lower elevations. Expect sustained east winds of 30
to 40 mph with gusts in excess of 50 mph across the
Baboquivari Mountains.

* For a detailed view of the hazard area... visit
weather.Gov/Tucson and click on the detailed hazards tab

Precautionary/preparedness actions...

A Wind Advisory means that sustained winds of 30 mph or greater
are expected in the valleys... or 35 mph or greater above
5000 feet. Higher gusts are also likely. This could make driving
difficult... especially for high profile vehicles. Use extra
caution.



Visit US on facebook... twitter... youtube... and at weather.Gov/Tucson